sensor_id;sensor_type;location;lat;lon;timestamp;temperature;humidity
1075;DHT22;526;51.392;12.448;2022-08-03T00:02:20;18.70;97.30
1075;DHT22;526;51.392;12.448;2022-08-03T00:04:46;18.70;97.30
1075;DHT22;526;51.392;12.448;2022-08-03T00:07:12;18.60;97.30
1075;DHT22;526;51.392;12.448;2022-08-03T00:09:37;18.60;97.30
1075;DHT22;526;51.392;12.448;2022-08-03T00:12:03;18.60;97.30
1075;DHT22;526;51.392;12.448;2022-08-03T00:14:29;18.60;97.30
1075;DHT22;526;51.392;12.448;2022-08-03T00:16:55;18.60;97.30
1075;DHT22;526;51.392;12.448;2022-08-03T00:19:20;18.60;97.30
1075;DHT22;526;51.392;12.448;2022-08-03T00:21:46;18.60;97.30
1075;DHT22;526;51.392;12.448;2022-08-03T00:24:11;18.60;97.30
1075;DHT22;526;51.392;12.448;2022-08-03T00:26:37;18.60;97.30
1075;DHT22;526;51.392;12.448;2022-08-03T00:29:02;18.60;97.30
1075;DHT22;526;51.392;12.448;2022-08-03T00:31:28;18.60;97.30
1075;DHT22;526;51.392;12.448;2022-08-03T00:33:53;18.50;97.30
1075;DHT22;526;51.392;12.448;2022-08-03T00:36:19;18.50;97.30
1075;DHT22;526;51.392;12.448;2022-08-03T00:38:45;18.40;97.30
1075;DHT22;526;51.392;12.448;2022-08-03T00:41:10;18.40;97.30
1075;DHT22;526;51.392;12.448;2022-08-03T00:43:36;18.30;97.30
1075;DHT22;526;51.392;12.448;2022-08-03T00:46:01;18.30;97.30
1075;DHT22;526;51.392;12.448;2022-08-03T00:48:27;18.30;97.30
1075;DHT22;526;51.392;12.448;2022-08-03T00:50:52;18.30;97.30
1075;DHT22;526;51.392;12.448;2022-08-03T00:53:18;18.30;97.30
1075;DHT22;526;51.392;12.448;2022-08-03T00:55:44;18.30;97.30
1075;DHT22;526;51.392;12.448;2022-08-03T00:58:10;18.20;97.30
1075;DHT22;526;51.392;12.448;2022-08-03T01:00:38;18.20;97.30
1075;DHT22;526;51.392;12.448;2022-08-03T01:03:05;18.20;97.30
1075;DHT22;526;51.392;12.448;2022-08-03T01:05:50;18.20;97.30
1075;DHT22;526;51.392;12.448;2022-08-03T01:08:43;18.10;97.30
1075;DHT22;526;51.392;12.448;2022-08-03T01:11:27;18.10;97.30
1075;DHT22;526;51.392;12.448;2022-08-03T01:14:08;18.10;97.30
1075;DHT22;526;51.392;12.448;2022-08-03T01:16:48;18.10;97.30
1075;DHT22;526;51.392;12.448;2022-08-03T01:24:53;18.00;97.30
1075;DHT22;526;51.392;12.448;2022-08-03T01:28:07;17.90;97.30
1075;DHT22;526;51.392;12.448;2022-08-03T01:30:11;17.80;97.30
1075;DHT22;526;51.392;12.448;2022-08-03T01:32:53;17.80;97.30
1075;DHT22;526;51.392;12.448;2022-08-03T01:36:08;17.70;97.30
1075;DHT22;526;51.392;12.448;2022-08-03T01:38:34;17.70;97.30
1075;DHT22;526;51.392;12.448;2022-08-03T01:41:06;17.70;97.30
1075;DHT22;526;51.392;12.448;2022-08-03T01:43:34;17.70;97.30
1075;DHT22;526;51.392;12.448;2022-08-03T01:46:02;17.70;97.30
1075;DHT22;526;51.392;12.448;2022-08-03T01:48:29;17.70;97.30
1075;DHT22;526;51.392;12.448;2022-08-03T01:50:56;17.70;97.30
1075;DHT22;526;51.392;12.448;2022-08-03T01:53:23;17.60;97.30
1075;DHT22;526;51.392;12.448;2022-08-03T01:55:53;17.60;97.30
1075;DHT22;526;51.392;12.448;2022-08-03T01:58:21;17.60;97.30
1075;DHT22;526;51.392;12.448;2022-08-03T02:00:49;17.60;97.30
1075;DHT22;526;51.392;12.448;2022-08-03T02:03:16;17.60;97.30
1075;DHT22;526;51.392;12.448;2022-08-03T02:05:44;17.60;97.30
1075;DHT22;526;51.392;12.448;2022-08-03T02:08:12;17.60;97.30
1075;DHT22;526;51.392;12.448;2022-08-03T02:10:40;17.60;97.30
1075;DHT22;526;51.392;12.448;2022-08-03T02:13:08;17.60;97.30
1075;DHT22;526;51.392;12.448;2022-08-03T02:15:35;17.60;97.30
1075;DHT22;526;51.392;12.448;2022-08-03T02:18:03;17.50;97.30
1075;DHT22;526;51.392;12.448;2022-08-03T02:20:30;17.50;97.30
1075;DHT22;526;51.392;12.448;2022-08-03T02:22:57;17.50;97.30
1075;DHT22;526;51.392;12.448;2022-08-03T02:25:23;17.50;97.30
1075;DHT22;526;51.392;12.448;2022-08-03T02:27:55;17.50;97.30
1075;DHT22;526;51.392;12.448;2022-08-03T02:30:27;17.50;97.30
1075;DHT22;526;51.392;12.448;2022-08-03T02:32:55;17.50;97.30
1075;DHT22;526;51.392;12.448;2022-08-03T02:35:24;17.50;97.30
1075;DHT22;526;51.392;12.448;2022-08-03T02:37:54;17.50;97.30
1075;DHT22;526;51.392;12.448;2022-08-03T02:40:22;17.50;97.30
1075;DHT22;526;51.392;12.448;2022-08-03T02:42:51;17.50;97.30
1075;DHT22;526;51.392;12.448;2022-08-03T02:45:19;17.50;97.30
1075;DHT22;526;51.392;12.448;2022-08-03T02:47:45;17.40;97.30
1075;DHT22;526;51.392;12.448;2022-08-03T02:50:14;17.40;97.30
1075;DHT22;526;51.392;12.448;2022-08-03T02:52:41;17.40;97.30
1075;DHT22;526;51.392;12.448;2022-08-03T02:55:09;17.40;97.30
1075;DHT22;526;51.392;12.448;2022-08-03T02:57:36;17.30;97.30
1075;DHT22;526;51.392;12.448;2022-08-03T03:00:04;17.40;97.30
1075;DHT22;526;51.392;12.448;2022-08-03T03:02:31;17.30;97.30
1075;DHT22;526;51.392;12.448;2022-08-03T03:04:59;17.30;97.30
1075;DHT22;526;51.392;12.448;2022-08-03T03:07:26;17.20;97.30
1075;DHT22;526;51.392;12.448;2022-08-03T03:09:52;17.20;97.30
1075;DHT22;526;51.392;12.448;2022-08-03T03:12:18;17.20;97.30
1075;DHT22;526;51.392;12.448;2022-08-03T03:14:45;17.20;97.30
1075;DHT22;526;51.392;12.448;2022-08-03T03:17:13;17.20;97.30
1075;DHT22;526;51.392;12.448;2022-08-03T03:19:40;17.10;97.30
1075;DHT22;526;51.392;12.448;2022-08-03T03:22:07;17.10;97.30
1075;DHT22;526;51.392;12.448;2022-08-03T03:24:34;17.10;97.30
1075;DHT22;526;51.392;12.448;2022-08-03T03:27:01;17.00;97.30
1075;DHT22;526;51.392;12.448;2022-08-03T03:29:27;17.00;97.30
1075;DHT22;526;51.392;12.448;2022-08-03T03:31:53;17.00;97.30
1075;DHT22;526;51.392;12.448;2022-08-03T03:34:19;17.00;97.30
1075;DHT22;526;51.392;12.448;2022-08-03T03:36:45;17.00;97.30
1075;DHT22;526;51.392;12.448;2022-08-03T03:39:11;16.90;97.30
1075;DHT22;526;51.392;12.448;2022-08-03T03:41:37;16.90;97.30
1075;DHT22;526;51.392;12.448;2022-08-03T03:44:03;16.90;97.30
1075;DHT22;526;51.392;12.448;2022-08-03T03:46:29;16.90;97.30
1075;DHT22;526;51.392;12.448;2022-08-03T03:48:55;16.90;97.30
1075;DHT22;526;51.392;12.448;2022-08-03T03:51:21;16.90;97.30
1075;DHT22;526;51.392;12.448;2022-08-03T03:54:07;16.90;97.30
1075;DHT22;526;51.392;12.448;2022-08-03T03:56:32;16.80;97.30
1075;DHT22;526;51.392;12.448;2022-08-03T03:58:58;16.80;97.30
1075;DHT22;526;51.392;12.448;2022-08-03T04:01:24;16.80;97.30
1075;DHT22;526;51.392;12.448;2022-08-03T04:03:50;16.90;97.30
1075;DHT22;526;51.392;12.448;2022-08-03T04:06:15;16.90;97.30
1075;DHT22;526;51.392;12.448;2022-08-03T04:09:02;16.90;97.30
1075;DHT22;526;51.392;12.448;2022-08-03T04:11:50;16.90;97.30
1075;DHT22;526;51.392;12.448;2022-08-03T04:14:18;16.90;97.30
1075;DHT22;526;51.392;12.448;2022-08-03T04:16:47;16.90;97.30
1075;DHT22;526;51.392;12.448;2022-08-03T04:19:22;16.90;97.30
1075;DHT22;526;51.392;12.448;2022-08-03T04:21:50;17.00;97.30
1075;DHT22;526;51.392;12.448;2022-08-03T04:24:17;17.00;97.30
1075;DHT22;526;51.392;12.448;2022-08-03T04:26:45;17.00;97.30
1075;DHT22;526;51.392;12.448;2022-08-03T04:29:12;17.00;97.30
1075;DHT22;526;51.392;12.448;2022-08-03T04:31:39;17.00;97.30
1075;DHT22;526;51.392;12.448;2022-08-03T04:34:05;17.10;97.30
1075;DHT22;526;51.392;12.448;2022-08-03T04:36:34;17.10;97.30
1075;DHT22;526;51.392;12.448;2022-08-03T04:39:02;17.10;97.30
1075;DHT22;526;51.392;12.448;2022-08-03T04:41:30;17.20;97.30
1075;DHT22;526;51.392;12.448;2022-08-03T04:43:58;17.20;97.30
1075;DHT22;526;51.392;12.448;2022-08-03T04:46:27;17.20;97.30
1075;DHT22;526;51.392;12.448;2022-08-03T04:48:54;17.30;97.30
1075;DHT22;526;51.392;12.448;2022-08-03T04:51:20;17.30;97.30
1075;DHT22;526;51.392;12.448;2022-08-03T04:53:46;17.30;97.30
1075;DHT22;526;51.392;12.448;2022-08-03T04:56:12;17.30;97.30
1075;DHT22;526;51.392;12.448;2022-08-03T04:58:37;17.40;97.30
1075;DHT22;526;51.392;12.448;2022-08-03T05:01:03;17.40;97.30
1075;DHT22;526;51.392;12.448;2022-08-03T05:03:29;17.50;97.30
1075;DHT22;526;51.392;12.448;2022-08-03T05:05:56;17.50;97.30
1075;DHT22;526;51.392;12.448;2022-08-03T05:08:21;17.60;97.30
1075;DHT22;526;51.392;12.448;2022-08-03T05:10:47;17.60;97.30
1075;DHT22;526;51.392;12.448;2022-08-03T05:13:13;17.60;97.30
1075;DHT22;526;51.392;12.448;2022-08-03T05:15:39;17.70;97.30
1075;DHT22;526;51.392;12.448;2022-08-03T05:18:05;17.70;97.30
1075;DHT22;526;51.392;12.448;2022-08-03T05:20:31;17.70;97.30
1075;DHT22;526;51.392;12.448;2022-08-03T05:22:57;17.70;97.30
1075;DHT22;526;51.392;12.448;2022-08-03T05:25:24;17.80;97.30
1075;DHT22;526;51.392;12.448;2022-08-03T05:27:49;17.80;97.30
1075;DHT22;526;51.392;12.448;2022-08-03T05:30:15;17.90;97.30
1075;DHT22;526;51.392;12.448;2022-08-03T05:32:41;18.00;97.30
1075;DHT22;526;51.392;12.448;2022-08-03T05:35:06;18.00;97.30
1075;DHT22;526;51.392;12.448;2022-08-03T05:37:32;18.10;97.30
1075;DHT22;526;51.392;12.448;2022-08-03T05:39:58;18.20;97.30
1075;DHT22;526;51.392;12.448;2022-08-03T05:42:23;18.30;97.30
1075;DHT22;526;51.392;12.448;2022-08-03T05:44:49;18.40;97.30
1075;DHT22;526;51.392;12.448;2022-08-03T05:47:14;18.50;97.30
1075;DHT22;526;51.392;12.448;2022-08-03T05:49:40;18.60;97.30
1075;DHT22;526;51.392;12.448;2022-08-03T05:52:06;18.70;97.30
1075;DHT22;526;51.392;12.448;2022-08-03T05:54:31;18.80;97.30
1075;DHT22;526;51.392;12.448;2022-08-03T05:56:57;18.80;97.30
1075;DHT22;526;51.392;12.448;2022-08-03T05:59:22;18.90;97.30
1075;DHT22;526;51.392;12.448;2022-08-03T06:01:50;19.00;97.30
1075;DHT22;526;51.392;12.448;2022-08-03T06:04:15;19.20;97.30
1075;DHT22;526;51.392;12.448;2022-08-03T06:06:41;19.30;97.30
1075;DHT22;526;51.392;12.448;2022-08-03T06:09:08;19.40;97.30
1075;DHT22;526;51.392;12.448;2022-08-03T06:11:35;19.50;97.30
1075;DHT22;526;51.392;12.448;2022-08-03T06:14:00;19.60;97.30
1075;DHT22;526;51.392;12.448;2022-08-03T06:16:26;19.70;97.30
1075;DHT22;526;51.392;12.448;2022-08-03T06:18:52;19.80;97.30
1075;DHT22;526;51.392;12.448;2022-08-03T06:21:17;19.90;97.30
1075;DHT22;526;51.392;12.448;2022-08-03T06:23:44;20.00;97.30
1075;DHT22;526;51.392;12.448;2022-08-03T06:26:10;20.10;97.30
1075;DHT22;526;51.392;12.448;2022-08-03T06:28:35;20.20;97.30
1075;DHT22;526;51.392;12.448;2022-08-03T06:31:01;20.30;97.30
1075;DHT22;526;51.392;12.448;2022-08-03T06:33:27;20.40;97.30
1075;DHT22;526;51.392;12.448;2022-08-03T06:35:53;20.50;97.30
1075;DHT22;526;51.392;12.448;2022-08-03T06:38:18;20.60;97.30
1075;DHT22;526;51.392;12.448;2022-08-03T06:40:44;20.80;97.30
1075;DHT22;526;51.392;12.448;2022-08-03T06:43:09;20.80;97.30
1075;DHT22;526;51.392;12.448;2022-08-03T06:45:36;20.90;97.30
1075;DHT22;526;51.392;12.448;2022-08-03T06:48:07;21.00;97.30
1075;DHT22;526;51.392;12.448;2022-08-03T06:50:34;21.10;97.30
1075;DHT22;526;51.392;12.448;2022-08-03T06:53:00;21.20;96.80
1075;DHT22;526;51.392;12.448;2022-08-03T06:55:26;21.30;96.00
1075;DHT22;526;51.392;12.448;2022-08-03T06:57:52;21.50;94.20
1075;DHT22;526;51.392;12.448;2022-08-03T07:00:18;21.70;94.30
1075;DHT22;526;51.392;12.448;2022-08-03T07:02:44;21.80;93.10
1075;DHT22;526;51.392;12.448;2022-08-03T07:05:09;21.90;93.70
1075;DHT22;526;51.392;12.448;2022-08-03T07:07:35;22.10;93.00
1075;DHT22;526;51.392;12.448;2022-08-03T07:10:01;22.20;92.90
1075;DHT22;526;51.392;12.448;2022-08-03T07:12:28;22.30;92.50
1075;DHT22;526;51.392;12.448;2022-08-03T07:14:55;22.50;91.60
1075;DHT22;526;51.392;12.448;2022-08-03T07:17:21;22.60;90.80
1075;DHT22;526;51.392;12.448;2022-08-03T07:19:47;22.80;90.70
1075;DHT22;526;51.392;12.448;2022-08-03T07:22:13;22.90;91.00
1075;DHT22;526;51.392;12.448;2022-08-03T07:24:38;23.10;91.20
1075;DHT22;526;51.392;12.448;2022-08-03T07:27:06;23.20;89.90
1075;DHT22;526;51.392;12.448;2022-08-03T07:29:33;23.40;90.10
1075;DHT22;526;51.392;12.448;2022-08-03T07:31:59;23.50;90.70
1075;DHT22;526;51.392;12.448;2022-08-03T07:34:25;23.70;90.70
1075;DHT22;526;51.392;12.448;2022-08-03T07:36:50;23.80;89.10
1075;DHT22;526;51.392;12.448;2022-08-03T07:39:16;24.00;87.50
1075;DHT22;526;51.392;12.448;2022-08-03T07:41:41;24.10;87.00
1075;DHT22;526;51.392;12.448;2022-08-03T07:44:07;24.20;88.20
1075;DHT22;526;51.392;12.448;2022-08-03T07:46:32;24.30;87.60
1075;DHT22;526;51.392;12.448;2022-08-03T07:48:58;24.50;87.30
1075;DHT22;526;51.392;12.448;2022-08-03T07:51:24;24.60;87.60
1075;DHT22;526;51.392;12.448;2022-08-03T07:53:49;24.80;87.90
1075;DHT22;526;51.392;12.448;2022-08-03T07:56:15;24.90;87.30
1075;DHT22;526;51.392;12.448;2022-08-03T07:58:41;25.00;87.50
1075;DHT22;526;51.392;12.448;2022-08-03T08:01:07;25.10;87.10
1075;DHT22;526;51.392;12.448;2022-08-03T08:03:33;25.20;85.80
1075;DHT22;526;51.392;12.448;2022-08-03T08:05:58;25.30;84.90
1075;DHT22;526;51.392;12.448;2022-08-03T08:08:24;25.40;86.00
1075;DHT22;526;51.392;12.448;2022-08-03T08:10:49;25.60;86.40
1075;DHT22;526;51.392;12.448;2022-08-03T08:13:15;25.70;85.50
1075;DHT22;526;51.392;12.448;2022-08-03T08:15:41;25.80;84.90
1075;DHT22;526;51.392;12.448;2022-08-03T08:18:06;25.90;85.10
1075;DHT22;526;51.392;12.448;2022-08-03T08:20:34;26.00;84.80
1075;DHT22;526;51.392;12.448;2022-08-03T08:23:05;26.20;84.10
1075;DHT22;526;51.392;12.448;2022-08-03T08:25:31;26.40;83.70
1075;DHT22;526;51.392;12.448;2022-08-03T08:27:57;26.40;82.90
1075;DHT22;526;51.392;12.448;2022-08-03T08:30:23;26.60;82.50
1075;DHT22;526;51.392;12.448;2022-08-03T08:32:49;26.70;82.00
1075;DHT22;526;51.392;12.448;2022-08-03T08:35:16;26.80;82.30
1075;DHT22;526;51.392;12.448;2022-08-03T08:37:42;26.90;82.10
1075;DHT22;526;51.392;12.448;2022-08-03T08:40:09;27.10;81.50
1075;DHT22;526;51.392;12.448;2022-08-03T08:42:40;27.20;81.20
1075;DHT22;526;51.392;12.448;2022-08-03T08:45:06;27.40;81.00
1075;DHT22;526;51.392;12.448;2022-08-03T08:47:37;27.40;80.70
1075;DHT22;526;51.392;12.448;2022-08-03T08:50:03;27.50;79.70
1075;DHT22;526;51.392;12.448;2022-08-03T08:52:30;27.60;79.70
1075;DHT22;526;51.392;12.448;2022-08-03T08:54:58;27.60;78.70
1075;DHT22;526;51.392;12.448;2022-08-03T08:57:28;27.70;79.10
1075;DHT22;526;51.392;12.448;2022-08-03T08:59:57;27.80;79.40
1075;DHT22;526;51.392;12.448;2022-08-03T09:02:24;27.80;79.40
1075;DHT22;526;51.392;12.448;2022-08-03T09:04:50;27.90;77.90
1075;DHT22;526;51.392;12.448;2022-08-03T09:07:16;28.00;77.30
1075;DHT22;526;51.392;12.448;2022-08-03T09:09:42;28.10;76.60
1075;DHT22;526;51.392;12.448;2022-08-03T09:12:07;28.20;76.60
1075;DHT22;526;51.392;12.448;2022-08-03T09:14:33;28.30;76.40
1075;DHT22;526;51.392;12.448;2022-08-03T09:17:00;28.40;75.60
1075;DHT22;526;51.392;12.448;2022-08-03T09:19:28;28.40;75.30
1075;DHT22;526;51.392;12.448;2022-08-03T09:22:15;28.50;75.50
1075;DHT22;526;51.392;12.448;2022-08-03T09:24:58;28.50;75.70
1075;DHT22;526;51.392;12.448;2022-08-03T09:27:24;28.70;74.40
1075;DHT22;526;51.392;12.448;2022-08-03T09:29:51;28.80;73.90
1075;DHT22;526;51.392;12.448;2022-08-03T09:32:22;29.00;73.70
1075;DHT22;526;51.392;12.448;2022-08-03T09:34:50;29.00;72.50
1075;DHT22;526;51.392;12.448;2022-08-03T09:37:17;29.00;72.40
1075;DHT22;526;51.392;12.448;2022-08-03T09:39:44;29.00;72.00
1075;DHT22;526;51.392;12.448;2022-08-03T09:42:16;29.00;71.90
1075;DHT22;526;51.392;12.448;2022-08-03T09:44:48;29.00;72.40
1075;DHT22;526;51.392;12.448;2022-08-03T09:47:16;29.10;72.50
1075;DHT22;526;51.392;12.448;2022-08-03T09:49:57;29.20;72.20
1075;DHT22;526;51.392;12.448;2022-08-03T09:52:34;29.40;72.40
1075;DHT22;526;51.392;12.448;2022-08-03T09:55:02;29.50;72.30
1075;DHT22;526;51.392;12.448;2022-08-03T09:57:31;29.60;71.50
1075;DHT22;526;51.392;12.448;2022-08-03T10:00:07;29.70;72.70
1075;DHT22;526;51.392;12.448;2022-08-03T10:02:35;29.80;72.00
1075;DHT22;526;51.392;12.448;2022-08-03T10:05:01;29.90;72.00
1075;DHT22;526;51.392;12.448;2022-08-03T10:07:26;29.90;71.20
1075;DHT22;526;51.392;12.448;2022-08-03T10:09:57;29.90;71.10
1075;DHT22;526;51.392;12.448;2022-08-03T10:12:24;30.00;70.50
1075;DHT22;526;51.392;12.448;2022-08-03T10:14:50;30.10;71.30
1075;DHT22;526;51.392;12.448;2022-08-03T10:17:17;30.30;70.70
1075;DHT22;526;51.392;12.448;2022-08-03T10:19:42;30.30;68.30
1075;DHT22;526;51.392;12.448;2022-08-03T10:22:22;30.30;69.70
1075;DHT22;526;51.392;12.448;2022-08-03T10:27:41;30.40;70.00
1075;DHT22;526;51.392;12.448;2022-08-03T10:30:10;30.50;70.30
1075;DHT22;526;51.392;12.448;2022-08-03T10:32:43;30.50;70.60
1075;DHT22;526;51.392;12.448;2022-08-03T10:35:16;30.60;69.30
1075;DHT22;526;51.392;12.448;2022-08-03T10:37:44;30.80;69.30
1075;DHT22;526;51.392;12.448;2022-08-03T10:40:14;30.90;69.00
1075;DHT22;526;51.392;12.448;2022-08-03T10:42:42;31.00;67.80
1075;DHT22;526;51.392;12.448;2022-08-03T10:45:25;31.00;67.00
1075;DHT22;526;51.392;12.448;2022-08-03T10:47:52;31.00;67.20
1075;DHT22;526;51.392;12.448;2022-08-03T10:50:22;31.00;66.20
1075;DHT22;526;51.392;12.448;2022-08-03T10:53:05;30.90;67.10
1075;DHT22;526;51.392;12.448;2022-08-03T10:55:41;30.90;68.40
1075;DHT22;526;51.392;12.448;2022-08-03T10:58:45;30.90;68.50
1075;DHT22;526;51.392;12.448;2022-08-03T11:01:11;31.00;69.80
1075;DHT22;526;51.392;12.448;2022-08-03T11:06:23;31.20;68.20
1075;DHT22;526;51.392;12.448;2022-08-03T11:11:39;31.60;69.20
1075;DHT22;526;51.392;12.448;2022-08-03T11:14:11;31.70;68.90
1075;DHT22;526;51.392;12.448;2022-08-03T11:16:45;31.70;67.70
1075;DHT22;526;51.392;12.448;2022-08-03T11:19:18;31.70;67.20
1075;DHT22;526;51.392;12.448;2022-08-03T11:27:16;31.80;65.40
1075;DHT22;526;51.392;12.448;2022-08-03T11:30:06;31.70;64.80
1075;DHT22;526;51.392;12.448;2022-08-03T11:40:45;32.00;68.70
1075;DHT22;526;51.392;12.448;2022-08-03T11:46:05;32.20;66.80
1075;DHT22;526;51.392;12.448;2022-08-03T11:48:36;32.30;67.10
1075;DHT22;526;51.392;12.448;2022-08-03T11:51:05;32.40;67.20
1075;DHT22;526;51.392;12.448;2022-08-03T11:53:31;32.50;66.50
1075;DHT22;526;51.392;12.448;2022-08-03T11:56:01;32.50;66.70
1075;DHT22;526;51.392;12.448;2022-08-03T11:58:28;32.60;68.90
1075;DHT22;526;51.392;12.448;2022-08-03T12:01:05;32.70;66.80
1075;DHT22;526;51.392;12.448;2022-08-03T12:03:34;32.80;65.80
1075;DHT22;526;51.392;12.448;2022-08-03T12:06:00;33.00;67.00
1075;DHT22;526;51.392;12.448;2022-08-03T12:10:54;33.20;67.40
1075;DHT22;526;51.392;12.448;2022-08-03T12:13:21;33.30;66.80
1075;DHT22;526;51.392;12.448;2022-08-03T12:15:55;33.40;65.40
1075;DHT22;526;51.392;12.448;2022-08-03T12:18:22;33.40;64.50
1075;DHT22;526;51.392;12.448;2022-08-03T12:20:52;33.30;63.40
1075;DHT22;526;51.392;12.448;2022-08-03T12:23:18;33.20;64.40
1075;DHT22;526;51.392;12.448;2022-08-03T12:25:46;33.30;64.20
1075;DHT22;526;51.392;12.448;2022-08-03T12:30:38;33.50;63.90
1075;DHT22;526;51.392;12.448;2022-08-03T12:33:27;33.60;64.00
1075;DHT22;526;51.392;12.448;2022-08-03T12:36:08;33.70;63.80
1075;DHT22;526;51.392;12.448;2022-08-03T12:38:36;33.80;61.80
1075;DHT22;526;51.392;12.448;2022-08-03T12:41:04;33.90;61.90
1075;DHT22;526;51.392;12.448;2022-08-03T12:43:30;34.10;64.00
1075;DHT22;526;51.392;12.448;2022-08-03T12:46:17;34.10;63.90
1075;DHT22;526;51.392;12.448;2022-08-03T12:51:28;34.30;62.80
1075;DHT22;526;51.392;12.448;2022-08-03T12:53:55;34.30;63.00
1075;DHT22;526;51.392;12.448;2022-08-03T12:56:22;34.40;61.00
1075;DHT22;526;51.392;12.448;2022-08-03T12:58:48;34.50;62.10
1075;DHT22;526;51.392;12.448;2022-08-03T13:01:15;34.60;61.40
1075;DHT22;526;51.392;12.448;2022-08-03T13:03:47;34.70;61.80
1075;DHT22;526;51.392;12.448;2022-08-03T13:06:14;34.80;62.20
1075;DHT22;526;51.392;12.448;2022-08-03T13:08:40;35.00;62.30
1075;DHT22;526;51.392;12.448;2022-08-03T13:11:24;35.00;60.70
1075;DHT22;526;51.392;12.448;2022-08-03T13:13:51;35.00;61.10
1075;DHT22;526;51.392;12.448;2022-08-03T13:16:17;35.00;60.30
1075;DHT22;526;51.392;12.448;2022-08-03T13:18:43;34.90;60.70
1075;DHT22;526;51.392;12.448;2022-08-03T13:21:12;35.00;61.10
1075;DHT22;526;51.392;12.448;2022-08-03T13:23:37;34.90;59.80
1075;DHT22;526;51.392;12.448;2022-08-03T13:26:03;35.00;60.10
1075;DHT22;526;51.392;12.448;2022-08-03T13:28:28;35.10;59.40
1075;DHT22;526;51.392;12.448;2022-08-03T13:30:54;35.20;60.10
1075;DHT22;526;51.392;12.448;2022-08-03T13:33:20;35.10;59.00
1075;DHT22;526;51.392;12.448;2022-08-03T13:35:45;35.00;58.90
1075;DHT22;526;51.392;12.448;2022-08-03T13:38:11;35.00;59.90
1075;DHT22;526;51.392;12.448;2022-08-03T13:40:37;35.00;59.50
1075;DHT22;526;51.392;12.448;2022-08-03T13:43:03;35.10;59.20
1075;DHT22;526;51.392;12.448;2022-08-03T13:45:29;35.10;58.70
1075;DHT22;526;51.392;12.448;2022-08-03T13:47:54;35.20;59.10
1075;DHT22;526;51.392;12.448;2022-08-03T13:50:20;35.30;59.10
1075;DHT22;526;51.392;12.448;2022-08-03T13:52:46;35.30;58.80
1075;DHT22;526;51.392;12.448;2022-08-03T13:55:12;35.30;59.40
1075;DHT22;526;51.392;12.448;2022-08-03T13:57:39;35.40;60.00
1075;DHT22;526;51.392;12.448;2022-08-03T14:00:06;35.40;61.60
1075;DHT22;526;51.392;12.448;2022-08-03T14:02:32;35.60;60.80
1075;DHT22;526;51.392;12.448;2022-08-03T14:04:57;35.70;60.50
1075;DHT22;526;51.392;12.448;2022-08-03T14:07:23;35.80;60.00
1075;DHT22;526;51.392;12.448;2022-08-03T14:09:49;35.90;61.00
1075;DHT22;526;51.392;12.448;2022-08-03T14:12:14;36.00;58.90
1075;DHT22;526;51.392;12.448;2022-08-03T14:14:40;35.90;57.90
1075;DHT22;526;51.392;12.448;2022-08-03T14:17:06;35.90;60.40
1075;DHT22;526;51.392;12.448;2022-08-03T14:19:31;35.90;59.40
1075;DHT22;526;51.392;12.448;2022-08-03T14:21:57;35.80;59.10
1075;DHT22;526;51.392;12.448;2022-08-03T14:24:23;35.70;59.80
1075;DHT22;526;51.392;12.448;2022-08-03T14:26:48;35.60;60.10
1075;DHT22;526;51.392;12.448;2022-08-03T14:29:14;35.60;60.70
1075;DHT22;526;51.392;12.448;2022-08-03T14:31:39;35.70;59.60
1075;DHT22;526;51.392;12.448;2022-08-03T14:34:05;35.80;59.00
1075;DHT22;526;51.392;12.448;2022-08-03T14:36:31;35.90;57.90
1075;DHT22;526;51.392;12.448;2022-08-03T14:38:56;36.00;56.70
1075;DHT22;526;51.392;12.448;2022-08-03T14:41:22;36.00;56.10
1075;DHT22;526;51.392;12.448;2022-08-03T14:43:47;36.10;56.40
1075;DHT22;526;51.392;12.448;2022-08-03T14:46:13;36.10;55.90
1075;DHT22;526;51.392;12.448;2022-08-03T14:48:39;36.00;56.80
1075;DHT22;526;51.392;12.448;2022-08-03T14:51:05;36.00;58.20
1075;DHT22;526;51.392;12.448;2022-08-03T14:53:30;36.10;57.70
1075;DHT22;526;51.392;12.448;2022-08-03T14:55:56;36.30;57.90
1075;DHT22;526;51.392;12.448;2022-08-03T14:58:23;36.40;57.40
1075;DHT22;526;51.392;12.448;2022-08-03T15:00:50;36.50;57.00
1075;DHT22;526;51.392;12.448;2022-08-03T15:03:17;36.60;56.60
1075;DHT22;526;51.392;12.448;2022-08-03T15:05:45;36.80;57.40
1075;DHT22;526;51.392;12.448;2022-08-03T15:08:11;36.90;55.80
1075;DHT22;526;51.392;12.448;2022-08-03T15:10:36;37.10;55.90
1075;DHT22;526;51.392;12.448;2022-08-03T15:13:02;37.20;56.20
1075;DHT22;526;51.392;12.448;2022-08-03T15:15:27;37.20;56.60
1075;DHT22;526;51.392;12.448;2022-08-03T15:17:53;37.10;56.50
1075;DHT22;526;51.392;12.448;2022-08-03T15:20:19;37.10;58.20
1075;DHT22;526;51.392;12.448;2022-08-03T15:22:45;37.00;58.70
1075;DHT22;526;51.392;12.448;2022-08-03T15:25:10;36.90;58.00
1075;DHT22;526;51.392;12.448;2022-08-03T15:27:37;36.80;58.60
1075;DHT22;526;51.392;12.448;2022-08-03T15:30:03;36.80;59.80
1075;DHT22;526;51.392;12.448;2022-08-03T15:32:34;36.60;58.70
1075;DHT22;526;51.392;12.448;2022-08-03T15:34:59;36.30;58.20
1075;DHT22;526;51.392;12.448;2022-08-03T15:37:25;36.00;58.50
1075;DHT22;526;51.392;12.448;2022-08-03T15:39:51;35.70;60.40
1075;DHT22;526;51.392;12.448;2022-08-03T15:42:17;35.50;61.30
1075;DHT22;526;51.392;12.448;2022-08-03T15:44:42;35.20;61.50
1075;DHT22;526;51.392;12.448;2022-08-03T15:47:08;35.10;62.40
1075;DHT22;526;51.392;12.448;2022-08-03T15:49:33;35.30;62.30
1075;DHT22;526;51.392;12.448;2022-08-03T15:51:59;35.40;62.00
1075;DHT22;526;51.392;12.448;2022-08-03T15:54:26;35.50;60.90
1075;DHT22;526;51.392;12.448;2022-08-03T15:56:52;35.70;62.30
1075;DHT22;526;51.392;12.448;2022-08-03T15:59:17;36.00;61.20
1075;DHT22;526;51.392;12.448;2022-08-03T16:01:45;36.20;59.20
1075;DHT22;526;51.392;12.448;2022-08-03T16:04:10;36.40;59.40
1075;DHT22;526;51.392;12.448;2022-08-03T16:06:36;36.60;57.20
1075;DHT22;526;51.392;12.448;2022-08-03T16:09:06;36.70;57.20
1075;DHT22;526;51.392;12.448;2022-08-03T16:11:33;36.80;56.80
1075;DHT22;526;51.392;12.448;2022-08-03T16:13:58;36.90;58.20
1075;DHT22;526;51.392;12.448;2022-08-03T16:16:24;36.90;58.90
1075;DHT22;526;51.392;12.448;2022-08-03T16:18:50;36.80;59.40
1075;DHT22;526;51.392;12.448;2022-08-03T16:21:16;36.70;59.40
1075;DHT22;526;51.392;12.448;2022-08-03T16:23:42;36.60;57.80
1075;DHT22;526;51.392;12.448;2022-08-03T16:26:08;36.50;58.50
1075;DHT22;526;51.392;12.448;2022-08-03T16:28:34;36.60;59.20
1075;DHT22;526;51.392;12.448;2022-08-03T16:31:02;36.60;58.30
1075;DHT22;526;51.392;12.448;2022-08-03T16:33:29;36.60;57.80
1075;DHT22;526;51.392;12.448;2022-08-03T16:35:55;36.60;57.20
1075;DHT22;526;51.392;12.448;2022-08-03T16:38:21;36.50;56.60
1075;DHT22;526;51.392;12.448;2022-08-03T16:40:49;36.40;57.20
1075;DHT22;526;51.392;12.448;2022-08-03T16:43:18;36.40;57.40
1075;DHT22;526;51.392;12.448;2022-08-03T16:45:45;36.40;57.00